sensor_id;sensor_type;location;lat;lon;timestamp;P1;durP1;ratioP1;P2;durP2;ratioP2
59169;SDS011;52474;52.236;5.114;2023-07-29T00:00:45;7.80;;;6.57;;
59169;SDS011;52474;52.236;5.114;2023-07-29T00:03:11;10.80;;;6.47;;
59169;SDS011;52474;52.236;5.114;2023-07-29T00:05:37;11.70;;;8.30;;
59169;SDS011;52474;52.236;5.114;2023-07-29T00:08:03;21.92;;;15.63;;
59169;SDS011;52474;52.236;5.114;2023-07-29T00:10:30;29.92;;;20.00;;
59169;SDS011;52474;52.236;5.114;2023-07-29T00:12:57;24.42;;;17.23;;
59169;SDS011;52474;52.236;5.114;2023-07-29T00:15:22;19.92;;;13.07;;
59169;SDS011;52474;52.236;5.114;2023-07-29T00:17:48;12.63;;;9.07;;
59169;SDS011;52474;52.236;5.114;2023-07-29T00:20:14;8.90;;;5.82;;
59169;SDS011;52474;52.236;5.114;2023-07-29T00:22:40;8.70;;;4.70;;
59169;SDS011;52474;52.236;5.114;2023-07-29T00:25:06;6.93;;;4.00;;
59169;SDS011;52474;52.236;5.114;2023-07-29T00:27:32;7.00;;;3.42;;
59169;SDS011;52474;52.236;5.114;2023-07-29T00:29:58;6.22;;;2.88;;
59169;SDS011;52474;52.236;5.114;2023-07-29T00:32:24;5.75;;;2.67;;
59169;SDS011;52474;52.236;5.114;2023-07-29T00:34:50;3.08;;;1.73;;
59169;SDS011;52474;52.236;5.114;2023-07-29T00:37:15;4.57;;;2.03;;
59169;SDS011;52474;52.236;5.114;2023-07-29T00:39:41;5.10;;;2.05;;
59169;SDS011;52474;52.236;5.114;2023-07-29T00:42:08;5.40;;;2.05;;
59169;SDS011;52474;52.236;5.114;2023-07-29T00:44:34;4.60;;;1.80;;
59169;SDS011;52474;52.236;5.114;2023-07-29T00:47:00;4.75;;;2.08;;
59169;SDS011;52474;52.236;5.114;2023-07-29T00:49:28;5.78;;;1.98;;
59169;SDS011;52474;52.236;5.114;2023-07-29T00:51:54;6.63;;;2.55;;
59169;SDS011;52474;52.236;5.114;2023-07-29T00:54:20;6.05;;;2.30;;
59169;SDS011;52474;52.236;5.114;2023-07-29T00:56:46;8.95;;;2.50;;
59169;SDS011;52474;52.236;5.114;2023-07-29T00:59:11;4.20;;;2.35;;
59169;SDS011;52474;52.236;5.114;2023-07-29T01:01:38;4.22;;;2.45;;
59169;SDS011;52474;52.236;5.114;2023-07-29T01:04:04;6.35;;;2.47;;
59169;SDS011;52474;52.236;5.114;2023-07-29T01:06:54;4.35;;;2.33;;
59169;SDS011;52474;52.236;5.114;2023-07-29T01:09:37;4.80;;;2.20;;
59169;SDS011;52474;52.236;5.114;2023-07-29T01:12:20;3.30;;;2.60;;
59169;SDS011;52474;52.236;5.114;2023-07-29T01:14:52;8.88;;;2.58;;
59169;SDS011;52474;52.236;5.114;2023-07-29T01:17:28;7.50;;;2.85;;
59169;SDS011;52474;52.236;5.114;2023-07-29T01:22:35;7.15;;;2.20;;
59169;SDS011;52474;52.236;5.114;2023-07-29T01:25:02;4.28;;;2.20;;
59169;SDS011;52474;52.236;5.114;2023-07-29T01:27:29;7.70;;;2.38;;
59169;SDS011;52474;52.236;5.114;2023-07-29T01:29:56;6.75;;;2.63;;
59169;SDS011;52474;52.236;5.114;2023-07-29T01:35:03;6.35;;;2.70;;
59169;SDS011;52474;52.236;5.114;2023-07-29T01:37:32;8.60;;;2.67;;
59169;SDS011;52474;52.236;5.114;2023-07-29T01:40:00;6.45;;;2.35;;
59169;SDS011;52474;52.236;5.114;2023-07-29T01:42:26;6.95;;;2.67;;
59169;SDS011;52474;52.236;5.114;2023-07-29T01:44:52;5.88;;;2.60;;
59169;SDS011;52474;52.236;5.114;2023-07-29T01:47:18;5.53;;;2.42;;
59169;SDS011;52474;52.236;5.114;2023-07-29T01:49:44;9.13;;;3.05;;
59169;SDS011;52474;52.236;5.114;2023-07-29T01:52:09;7.40;;;2.70;;
59169;SDS011;52474;52.236;5.114;2023-07-29T01:54:36;8.25;;;2.65;;
59169;SDS011;52474;52.236;5.114;2023-07-29T01:57:01;9.23;;;2.70;;
59169;SDS011;52474;52.236;5.114;2023-07-29T01:59:27;10.90;;;2.88;;
59169;SDS011;52474;52.236;5.114;2023-07-29T02:01:53;7.05;;;3.60;;
59169;SDS011;52474;52.236;5.114;2023-07-29T02:04:18;7.70;;;3.72;;
59169;SDS011;52474;52.236;5.114;2023-07-29T02:06:44;9.63;;;4.18;;
59169;SDS011;52474;52.236;5.114;2023-07-29T02:09:09;12.10;;;4.13;;
59169;SDS011;52474;52.236;5.114;2023-07-29T02:11:35;9.25;;;4.40;;
59169;SDS011;52474;52.236;5.114;2023-07-29T02:14:01;8.20;;;4.30;;
59169;SDS011;52474;52.236;5.114;2023-07-29T02:16:27;9.65;;;4.90;;
59169;SDS011;52474;52.236;5.114;2023-07-29T02:18:52;10.13;;;4.50;;
59169;SDS011;52474;52.236;5.114;2023-07-29T02:21:18;10.05;;;5.00;;
59169;SDS011;52474;52.236;5.114;2023-07-29T02:23:44;13.45;;;5.00;;
59169;SDS011;52474;52.236;5.114;2023-07-29T02:26:10;11.70;;;4.90;;
59169;SDS011;52474;52.236;5.114;2023-07-29T02:28:36;12.82;;;5.18;;
59169;SDS011;52474;52.236;5.114;2023-07-29T02:31:15;11.00;;;4.53;;
59169;SDS011;52474;52.236;5.114;2023-07-29T02:33:42;7.38;;;4.22;;
59169;SDS011;52474;52.236;5.114;2023-07-29T02:36:09;9.30;;;4.20;;
59169;SDS011;52474;52.236;5.114;2023-07-29T02:38:35;7.93;;;4.47;;
59169;SDS011;52474;52.236;5.114;2023-07-29T02:41:00;9.32;;;4.40;;
59169;SDS011;52474;52.236;5.114;2023-07-29T02:43:26;11.90;;;4.40;;
59169;SDS011;52474;52.236;5.114;2023-07-29T02:45:52;6.82;;;3.70;;
59169;SDS011;52474;52.236;5.114;2023-07-29T02:48:17;8.25;;;3.83;;
59169;SDS011;52474;52.236;5.114;2023-07-29T02:50:43;8.80;;;3.80;;
59169;SDS011;52474;52.236;5.114;2023-07-29T02:53:09;9.63;;;3.70;;
59169;SDS011;52474;52.236;5.114;2023-07-29T02:55:35;9.00;;;3.50;;
59169;SDS011;52474;52.236;5.114;2023-07-29T02:58:01;10.63;;;3.80;;
59169;SDS011;52474;52.236;5.114;2023-07-29T03:00:26;6.72;;;3.40;;
59169;SDS011;52474;52.236;5.114;2023-07-29T03:02:53;8.02;;;3.53;;
59169;SDS011;52474;52.236;5.114;2023-07-29T03:05:18;7.68;;;3.40;;
59169;SDS011;52474;52.236;5.114;2023-07-29T03:07:44;7.18;;;3.55;;
59169;SDS011;52474;52.236;5.114;2023-07-29T03:10:10;9.75;;;3.60;;
59169;SDS011;52474;52.236;5.114;2023-07-29T03:12:36;8.48;;;3.22;;
59169;SDS011;52474;52.236;5.114;2023-07-29T03:15:02;8.40;;;3.30;;
59169;SDS011;52474;52.236;5.114;2023-07-29T03:17:29;5.13;;;2.97;;
59169;SDS011;52474;52.236;5.114;2023-07-29T03:19:54;9.00;;;3.80;;
59169;SDS011;52474;52.236;5.114;2023-07-29T03:22:20;7.15;;;3.45;;
59169;SDS011;52474;52.236;5.114;2023-07-29T03:24:46;7.38;;;3.80;;
59169;SDS011;52474;52.236;5.114;2023-07-29T03:27:12;8.70;;;3.80;;
59169;SDS011;52474;52.236;5.114;2023-07-29T03:29:38;9.93;;;4.22;;
59169;SDS011;52474;52.236;5.114;2023-07-29T03:32:04;10.60;;;4.15;;
59169;SDS011;52474;52.236;5.114;2023-07-29T03:34:30;10.77;;;3.85;;
59169;SDS011;52474;52.236;5.114;2023-07-29T03:36:57;11.20;;;4.18;;
59169;SDS011;52474;52.236;5.114;2023-07-29T03:39:23;7.63;;;3.83;;
59169;SDS011;52474;52.236;5.114;2023-07-29T03:41:48;7.47;;;3.50;;
59169;SDS011;52474;52.236;5.114;2023-07-29T03:44:14;9.68;;;3.88;;
59169;SDS011;52474;52.236;5.114;2023-07-29T03:46:40;6.90;;;3.95;;
59169;SDS011;52474;52.236;5.114;2023-07-29T03:49:07;9.18;;;3.60;;
59169;SDS011;52474;52.236;5.114;2023-07-29T03:51:33;8.68;;;3.60;;
59169;SDS011;52474;52.236;5.114;2023-07-29T03:53:58;5.47;;;3.60;;
59169;SDS011;52474;52.236;5.114;2023-07-29T03:56:24;6.32;;;3.20;;
59169;SDS011;52474;52.236;5.114;2023-07-29T03:58:50;6.15;;;3.40;;
59169;SDS011;52474;52.236;5.114;2023-07-29T04:01:16;9.25;;;3.58;;
59169;SDS011;52474;52.236;5.114;2023-07-29T04:03:42;6.57;;;3.33;;
59169;SDS011;52474;52.236;5.114;2023-07-29T04:06:07;5.85;;;3.13;;
59169;SDS011;52474;52.236;5.114;2023-07-29T04:08:33;5.18;;;3.30;;
59169;SDS011;52474;52.236;5.114;2023-07-29T04:10:59;7.18;;;3.38;;
59169;SDS011;52474;52.236;5.114;2023-07-29T04:13:24;5.88;;;3.40;;
59169;SDS011;52474;52.236;5.114;2023-07-29T04:15:50;7.88;;;3.42;;
59169;SDS011;52474;52.236;5.114;2023-07-29T04:18:16;6.85;;;3.05;;
59169;SDS011;52474;52.236;5.114;2023-07-29T04:20:46;5.25;;;3.08;;
59169;SDS011;52474;52.236;5.114;2023-07-29T04:23:11;6.10;;;3.47;;
59169;SDS011;52474;52.236;5.114;2023-07-29T04:25:37;4.90;;;3.35;;
59169;SDS011;52474;52.236;5.114;2023-07-29T04:28:03;8.60;;;3.63;;
59169;SDS011;52474;52.236;5.114;2023-07-29T04:30:30;7.38;;;3.22;;
59169;SDS011;52474;52.236;5.114;2023-07-29T04:32:56;5.40;;;3.30;;
59169;SDS011;52474;52.236;5.114;2023-07-29T04:35:21;5.32;;;3.30;;
59169;SDS011;52474;52.236;5.114;2023-07-29T04:37:48;6.57;;;3.53;;
59169;SDS011;52474;52.236;5.114;2023-07-29T04:40:14;6.30;;;3.70;;
59169;SDS011;52474;52.236;5.114;2023-07-29T04:42:39;6.38;;;3.72;;
59169;SDS011;52474;52.236;5.114;2023-07-29T04:45:05;9.70;;;3.88;;
59169;SDS011;52474;52.236;5.114;2023-07-29T04:47:32;8.32;;;3.85;;
59169;SDS011;52474;52.236;5.114;2023-07-29T04:49:57;7.90;;;3.67;;
59169;SDS011;52474;52.236;5.114;2023-07-29T04:52:23;10.00;;;3.90;;
59169;SDS011;52474;52.236;5.114;2023-07-29T04:54:50;7.72;;;3.50;;
59169;SDS011;52474;52.236;5.114;2023-07-29T04:57:16;7.28;;;3.60;;
59169;SDS011;52474;52.236;5.114;2023-07-29T04:59:41;7.13;;;3.60;;
59169;SDS011;52474;52.236;5.114;2023-07-29T05:02:07;8.90;;;3.78;;
59169;SDS011;52474;52.236;5.114;2023-07-29T05:04:33;5.97;;;3.67;;
59169;SDS011;52474;52.236;5.114;2023-07-29T05:06:58;6.43;;;3.75;;
59169;SDS011;52474;52.236;5.114;2023-07-29T05:09:24;10.73;;;3.72;;
59169;SDS011;52474;52.236;5.114;2023-07-29T05:11:51;6.40;;;3.83;;
59169;SDS011;52474;52.236;5.114;2023-07-29T05:14:17;7.13;;;3.83;;
59169;SDS011;52474;52.236;5.114;2023-07-29T05:16:43;6.72;;;3.75;;
59169;SDS011;52474;52.236;5.114;2023-07-29T05:19:09;8.70;;;4.05;;
59169;SDS011;52474;52.236;5.114;2023-07-29T05:21:36;8.13;;;3.97;;
59169;SDS011;52474;52.236;5.114;2023-07-29T05:24:03;8.02;;;4.20;;
59169;SDS011;52474;52.236;5.114;2023-07-29T05:26:29;10.55;;;4.18;;
59169;SDS011;52474;52.236;5.114;2023-07-29T05:28:55;11.90;;;4.53;;
59169;SDS011;52474;52.236;5.114;2023-07-29T05:31:21;5.60;;;4.07;;
59169;SDS011;52474;52.236;5.114;2023-07-29T05:33:48;9.77;;;4.65;;
59169;SDS011;52474;52.236;5.114;2023-07-29T05:36:13;9.50;;;4.03;;
59169;SDS011;52474;52.236;5.114;2023-07-29T05:38:39;8.52;;;4.10;;
59169;SDS011;52474;52.236;5.114;2023-07-29T05:41:05;8.43;;;4.43;;
59169;SDS011;52474;52.236;5.114;2023-07-29T05:43:30;7.88;;;4.18;;
59169;SDS011;52474;52.236;5.114;2023-07-29T05:45:56;11.52;;;4.90;;
59169;SDS011;52474;52.236;5.114;2023-07-29T05:48:22;6.82;;;4.53;;
59169;SDS011;52474;52.236;5.114;2023-07-29T05:50:47;7.78;;;4.68;;
59169;SDS011;52474;52.236;5.114;2023-07-29T05:53:14;10.85;;;4.38;;
59169;SDS011;52474;52.236;5.114;2023-07-29T05:55:40;9.45;;;4.90;;
59169;SDS011;52474;52.236;5.114;2023-07-29T05:58:06;9.00;;;5.07;;
59169;SDS011;52474;52.236;5.114;2023-07-29T06:00:32;9.85;;;5.32;;
59169;SDS011;52474;52.236;5.114;2023-07-29T06:02:59;8.52;;;5.13;;
59169;SDS011;52474;52.236;5.114;2023-07-29T06:05:25;11.10;;;5.00;;
59169;SDS011;52474;52.236;5.114;2023-07-29T06:07:51;10.82;;;5.57;;
59169;SDS011;52474;52.236;5.114;2023-07-29T06:10:17;9.25;;;5.10;;
59169;SDS011;52474;52.236;5.114;2023-07-29T06:12:44;9.27;;;5.05;;
59169;SDS011;52474;52.236;5.114;2023-07-29T06:15:10;8.60;;;4.93;;
59169;SDS011;52474;52.236;5.114;2023-07-29T06:17:37;9.80;;;4.70;;
59169;SDS011;52474;52.236;5.114;2023-07-29T06:20:04;8.63;;;4.75;;
59169;SDS011;52474;52.236;5.114;2023-07-29T06:22:31;9.70;;;5.15;;
59169;SDS011;52474;52.236;5.114;2023-07-29T06:24:57;10.68;;;6.00;;
59169;SDS011;52474;52.236;5.114;2023-07-29T06:27:23;13.00;;;5.60;;
59169;SDS011;52474;52.236;5.114;2023-07-29T06:29:50;11.48;;;5.20;;
59169;SDS011;52474;52.236;5.114;2023-07-29T06:32:16;10.23;;;5.32;;
59169;SDS011;52474;52.236;5.114;2023-07-29T06:34:41;12.50;;;6.25;;
59169;SDS011;52474;52.236;5.114;2023-07-29T06:37:07;8.93;;;5.50;;
59169;SDS011;52474;52.236;5.114;2023-07-29T06:39:33;8.60;;;5.35;;
59169;SDS011;52474;52.236;5.114;2023-07-29T06:41:58;13.00;;;6.05;;
59169;SDS011;52474;52.236;5.114;2023-07-29T06:44:24;11.98;;;5.78;;
59169;SDS011;52474;52.236;5.114;2023-07-29T06:46:50;11.00;;;5.72;;
59169;SDS011;52474;52.236;5.114;2023-07-29T06:49:15;11.48;;;5.97;;
59169;SDS011;52474;52.236;5.114;2023-07-29T06:51:41;9.52;;;5.80;;
59169;SDS011;52474;52.236;5.114;2023-07-29T06:54:07;12.65;;;7.13;;
59169;SDS011;52474;52.236;5.114;2023-07-29T06:56:32;12.57;;;8.35;;
59169;SDS011;52474;52.236;5.114;2023-07-29T06:58:58;10.88;;;6.18;;
59169;SDS011;52474;52.236;5.114;2023-07-29T07:01:24;10.48;;;6.20;;
59169;SDS011;52474;52.236;5.114;2023-07-29T07:03:49;10.13;;;5.80;;
59169;SDS011;52474;52.236;5.114;2023-07-29T07:06:15;10.80;;;6.25;;
59169;SDS011;52474;52.236;5.114;2023-07-29T07:08:41;11.00;;;6.40;;
59169;SDS011;52474;52.236;5.114;2023-07-29T07:11:07;12.90;;;6.75;;
59169;SDS011;52474;52.236;5.114;2023-07-29T07:13:33;10.75;;;5.97;;
59169;SDS011;52474;52.236;5.114;2023-07-29T07:15:58;11.70;;;6.13;;
59169;SDS011;52474;52.236;5.114;2023-07-29T07:18:24;9.82;;;5.88;;
59169;SDS011;52474;52.236;5.114;2023-07-29T07:20:50;12.07;;;5.72;;
59169;SDS011;52474;52.236;5.114;2023-07-29T07:23:16;12.15;;;5.65;;
59169;SDS011;52474;52.236;5.114;2023-07-29T07:25:42;10.02;;;5.85;;
59169;SDS011;52474;52.236;5.114;2023-07-29T07:28:08;10.00;;;5.82;;
59169;SDS011;52474;52.236;5.114;2023-07-29T07:30:34;10.60;;;5.70;;
59169;SDS011;52474;52.236;5.114;2023-07-29T07:33:00;10.70;;;5.93;;
59169;SDS011;52474;52.236;5.114;2023-07-29T07:35:26;11.82;;;6.07;;
59169;SDS011;52474;52.236;5.114;2023-07-29T07:37:52;9.30;;;5.57;;
59169;SDS011;52474;52.236;5.114;2023-07-29T07:40:17;8.88;;;4.97;;
59169;SDS011;52474;52.236;5.114;2023-07-29T07:42:43;9.45;;;5.18;;
59169;SDS011;52474;52.236;5.114;2023-07-29T07:45:09;8.23;;;6.00;;
59169;SDS011;52474;52.236;5.114;2023-07-29T07:47:35;7.90;;;6.13;;
59169;SDS011;52474;52.236;5.114;2023-07-29T07:50:00;10.48;;;6.53;;
59169;SDS011;52474;52.236;5.114;2023-07-29T07:52:26;8.68;;;7.13;;
59169;SDS011;52474;52.236;5.114;2023-07-29T07:54:53;7.40;;;5.85;;
59169;SDS011;52474;52.236;5.114;2023-07-29T07:57:19;8.75;;;6.28;;
59169;SDS011;52474;52.236;5.114;2023-07-29T07:59:46;9.25;;;5.85;;
59169;SDS011;52474;52.236;5.114;2023-07-29T08:02:12;8.93;;;5.72;;
59169;SDS011;52474;52.236;5.114;2023-07-29T08:04:38;9.80;;;6.03;;
59169;SDS011;52474;52.236;5.114;2023-07-29T08:07:04;11.35;;;5.07;;
59169;SDS011;52474;52.236;5.114;2023-07-29T08:09:30;8.75;;;5.60;;
59169;SDS011;52474;52.236;5.114;2023-07-29T08:11:56;8.88;;;5.05;;
59169;SDS011;52474;52.236;5.114;2023-07-29T08:14:22;7.53;;;5.07;;
59169;SDS011;52474;52.236;5.114;2023-07-29T08:16:47;10.10;;;6.18;;
59169;SDS011;52474;52.236;5.114;2023-07-29T08:19:13;10.10;;;6.13;;
59169;SDS011;52474;52.236;5.114;2023-07-29T08:21:41;7.40;;;5.45;;
59169;SDS011;52474;52.236;5.114;2023-07-29T08:24:06;11.02;;;4.93;;
59169;SDS011;52474;52.236;5.114;2023-07-29T08:26:32;9.02;;;4.40;;
59169;SDS011;52474;52.236;5.114;2023-07-29T08:28:58;5.82;;;3.42;;
59169;SDS011;52474;52.236;5.114;2023-07-29T08:31:24;4.63;;;3.47;;
59169;SDS011;52474;52.236;5.114;2023-07-29T08:33:49;7.07;;;3.35;;
59169;SDS011;52474;52.236;5.114;2023-07-29T08:36:15;11.55;;;3.40;;
59169;SDS011;52474;52.236;5.114;2023-07-29T08:38:41;3.47;;;2.20;;
59169;SDS011;52474;52.236;5.114;2023-07-29T08:43:35;5.70;;;1.98;;
59169;SDS011;52474;52.236;5.114;2023-07-29T08:46:04;4.40;;;1.70;;
59169;SDS011;52474;52.236;5.114;2023-07-29T08:48:36;10.10;;;2.40;;
59169;SDS011;52474;52.236;5.114;2023-07-29T08:51:05;4.30;;;1.70;;
59169;SDS011;52474;52.236;5.114;2023-07-29T08:53:33;4.40;;;1.60;;
59169;SDS011;52474;52.236;5.114;2023-07-29T08:56:00;4.82;;;1.63;;
59169;SDS011;52474;52.236;5.114;2023-07-29T08:58:26;4.50;;;1.70;;
59169;SDS011;52474;52.236;5.114;2023-07-29T09:00:52;5.50;;;2.08;;
59169;SDS011;52474;52.236;5.114;2023-07-29T09:03:19;3.38;;;1.80;;
59169;SDS011;52474;52.236;5.114;2023-07-29T09:05:45;3.33;;;2.00;;
59169;SDS011;52474;52.236;5.114;2023-07-29T09:08:11;4.22;;;1.80;;
59169;SDS011;52474;52.236;5.114;2023-07-29T09:10:40;4.55;;;1.85;;
59169;SDS011;52474;52.236;5.114;2023-07-29T09:13:06;5.05;;;1.70;;
59169;SDS011;52474;52.236;5.114;2023-07-29T09:15:33;4.90;;;1.90;;
59169;SDS011;52474;52.236;5.114;2023-07-29T09:18:08;4.57;;;1.88;;
59169;SDS011;52474;52.236;5.114;2023-07-29T09:20:35;4.60;;;2.05;;
59169;SDS011;52474;52.236;5.114;2023-07-29T09:23:01;4.15;;;1.92;;
59169;SDS011;52474;52.236;5.114;2023-07-29T09:25:27;4.35;;;2.08;;
59169;SDS011;52474;52.236;5.114;2023-07-29T09:28:00;5.20;;;2.00;;
59169;SDS011;52474;52.236;5.114;2023-07-29T09:30:27;4.13;;;2.30;;
59169;SDS011;52474;52.236;5.114;2023-07-29T09:32:56;5.65;;;2.08;;
59169;SDS011;52474;52.236;5.114;2023-07-29T09:35:23;7.32;;;2.10;;
59169;SDS011;52474;52.236;5.114;2023-07-29T09:37:51;9.27;;;5.38;;
59169;SDS011;52474;52.236;5.114;2023-07-29T09:40:17;5.28;;;1.80;;
59169;SDS011;52474;52.236;5.114;2023-07-29T09:42:50;6.20;;;1.88;;
59169;SDS011;52474;52.236;5.114;2023-07-29T09:45:26;5.30;;;1.98;;
59169;SDS011;52474;52.236;5.114;2023-07-29T09:47:52;4.13;;;1.75;;
59169;SDS011;52474;52.236;5.114;2023-07-29T09:50:23;4.25;;;1.85;;
59169;SDS011;52474;52.236;5.114;2023-07-29T09:55:19;6.20;;;1.73;;
59169;SDS011;52474;52.236;5.114;2023-07-29T09:57:47;4.22;;;1.98;;
59169;SDS011;52474;52.236;5.114;2023-07-29T10:00:13;3.35;;;1.80;;
59169;SDS011;52474;52.236;5.114;2023-07-29T10:02:39;6.30;;;2.33;;
59169;SDS011;52474;52.236;5.114;2023-07-29T10:05:06;4.55;;;2.05;;
59169;SDS011;52474;52.236;5.114;2023-07-29T10:07:37;5.32;;;2.22;;
59169;SDS011;52474;52.236;5.114;2023-07-29T10:10:04;5.95;;;2.15;;
59169;SDS011;52474;52.236;5.114;2023-07-29T10:12:30;5.72;;;2.40;;
59169;SDS011;52474;52.236;5.114;2023-07-29T10:15:00;4.85;;;2.35;;
59169;SDS011;52474;52.236;5.114;2023-07-29T10:17:29;6.32;;;2.42;;
59169;SDS011;52474;52.236;5.114;2023-07-29T10:19:55;4.55;;;2.47;;
59169;SDS011;52474;52.236;5.114;2023-07-29T10:22:24;4.53;;;2.42;;
59169;SDS011;52474;52.236;5.114;2023-07-29T10:24:53;4.15;;;2.15;;
59169;SDS011;52474;52.236;5.114;2023-07-29T10:27:22;5.40;;;2.38;;
59169;SDS011;52474;52.236;5.114;2023-07-29T10:29:50;4.82;;;2.20;;
59169;SDS011;52474;52.236;5.114;2023-07-29T10:32:17;5.55;;;2.30;;
59169;SDS011;52474;52.236;5.114;2023-07-29T10:37:12;3.05;;;2.35;;
59169;SDS011;52474;52.236;5.114;2023-07-29T10:39:39;3.45;;;2.70;;
59169;SDS011;52474;52.236;5.114;2023-07-29T10:42:05;6.72;;;2.63;;
59169;SDS011;52474;52.236;5.114;2023-07-29T10:47:15;4.10;;;2.60;;
59169;SDS011;52474;52.236;5.114;2023-07-29T10:49:42;4.78;;;2.85;;
59169;SDS011;52474;52.236;5.114;2023-07-29T10:52:12;3.80;;;2.85;;
59169;SDS011;52474;52.236;5.114;2023-07-29T10:54:46;8.00;;;2.90;;
59169;SDS011;52474;52.236;5.114;2023-07-29T10:57:13;7.00;;;4.43;;
59169;SDS011;52474;52.236;5.114;2023-07-29T10:59:41;4.82;;;4.07;;
59169;SDS011;52474;52.236;5.114;2023-07-29T11:02:18;6.55;;;4.15;;
59169;SDS011;52474;52.236;5.114;2023-07-29T11:04:49;6.53;;;3.95;;
59169;SDS011;52474;52.236;5.114;2023-07-29T11:09:51;4.47;;;4.07;;
59169;SDS011;52474;52.236;5.114;2023-07-29T11:15:26;7.55;;;5.03;;
59169;SDS011;52474;52.236;5.114;2023-07-29T11:17:57;7.53;;;4.80;;
59169;SDS011;52474;52.236;5.114;2023-07-29T11:20:23;6.38;;;4.78;;
59169;SDS011;52474;52.236;5.114;2023-07-29T11:22:52;5.57;;;4.90;;
59169;SDS011;52474;52.236;5.114;2023-07-29T11:25:20;6.70;;;5.25;;
59169;SDS011;52474;52.236;5.114;2023-07-29T11:27:47;7.57;;;5.80;;
59169;SDS011;52474;52.236;5.114;2023-07-29T11:30:13;5.15;;;4.65;;
59169;SDS011;52474;52.236;5.114;2023-07-29T11:32:40;5.15;;;4.65;;
59169;SDS011;52474;52.236;5.114;2023-07-29T11:35:10;8.50;;;4.88;;
59169;SDS011;52474;52.236;5.114;2023-07-29T11:37:39;3.38;;;2.88;;
59169;SDS011;52474;52.236;5.114;2023-07-29T11:40:05;3.10;;;2.50;;
59169;SDS011;52474;52.236;5.114;2023-07-29T11:42:32;3.53;;;2.00;;
59169;SDS011;52474;52.236;5.114;2023-07-29T11:44:59;2.05;;;1.65;;
59169;SDS011;52474;52.236;5.114;2023-07-29T11:47:26;2.28;;;1.30;;
59169;SDS011;52474;52.236;5.114;2023-07-29T11:49:52;1.35;;;1.23;;
59169;SDS011;52474;52.236;5.114;2023-07-29T11:52:17;1.73;;;1.30;;
59169;SDS011;52474;52.236;5.114;2023-07-29T11:54:48;1.48;;;1.30;;
59169;SDS011;52474;52.236;5.114;2023-07-29T11:59:40;2.20;;;1.20;;
59169;SDS011;52474;52.236;5.114;2023-07-29T12:02:10;1.30;;;1.13;;
59169;SDS011;52474;52.236;5.114;2023-07-29T12:04:39;2.10;;;1.50;;
59169;SDS011;52474;52.236;5.114;2023-07-29T12:07:06;1.88;;;1.30;;
59169;SDS011;52474;52.236;5.114;2023-07-29T12:09:33;2.22;;;1.40;;
59169;SDS011;52474;52.236;5.114;2023-07-29T12:12:00;2.65;;;1.60;;
59169;SDS011;52474;52.236;5.114;2023-07-29T12:14:28;2.13;;;1.63;;
59169;SDS011;52474;52.236;5.114;2023-07-29T12:16:54;2.22;;;1.85;;
59169;SDS011;52474;52.236;5.114;2023-07-29T12:19:19;2.75;;;2.00;;
59169;SDS011;52474;52.236;5.114;2023-07-29T12:21:47;3.20;;;2.40;;
59169;SDS011;52474;52.236;5.114;2023-07-29T12:24:14;2.00;;;1.90;;
59169;SDS011;52474;52.236;5.114;2023-07-29T12:26:41;3.92;;;2.10;;
59169;SDS011;52474;52.236;5.114;2023-07-29T12:29:14;2.05;;;1.95;;
59169;SDS011;52474;52.236;5.114;2023-07-29T12:31:41;2.40;;;2.20;;
59169;SDS011;52474;52.236;5.114;2023-07-29T12:34:07;2.50;;;2.30;;
59169;SDS011;52474;52.236;5.114;2023-07-29T12:36:42;2.42;;;2.22;;
59169;SDS011;52474;52.236;5.114;2023-07-29T12:39:18;2.67;;;2.30;;
59169;SDS011;52474;52.236;5.114;2023-07-29T12:41:50;3.03;;;2.38;;
59169;SDS011;52474;52.236;5.114;2023-07-29T12:44:18;2.72;;;2.00;;
59169;SDS011;52474;52.236;5.114;2023-07-29T12:46:43;4.18;;;2.90;;
59169;SDS011;52474;52.236;5.114;2023-07-29T12:49:09;3.10;;;2.47;;
59169;SDS011;52474;52.236;5.114;2023-07-29T12:51:36;4.45;;;3.30;;
59169;SDS011;52474;52.236;5.114;2023-07-29T12:54:02;3.40;;;3.15;;
59169;SDS011;52474;52.236;5.114;2023-07-29T12:56:30;3.72;;;2.70;;
59169;SDS011;52474;52.236;5.114;2023-07-29T12:58:56;3.00;;;2.70;;
59169;SDS011;52474;52.236;5.114;2023-07-29T13:01:24;3.90;;;3.00;;
59169;SDS011;52474;52.236;5.114;2023-07-29T13:03:50;3.20;;;2.65;;
59169;SDS011;52474;52.236;5.114;2023-07-29T13:06:15;3.17;;;2.38;;
59169;SDS011;52474;52.236;5.114;2023-07-29T13:08:41;3.88;;;2.72;;
59169;SDS011;52474;52.236;5.114;2023-07-29T13:11:08;3.38;;;2.63;;
59169;SDS011;52474;52.236;5.114;2023-07-29T13:13:34;3.13;;;2.85;;
59169;SDS011;52474;52.236;5.114;2023-07-29T13:15:59;3.22;;;2.78;;
59169;SDS011;52474;52.236;5.114;2023-07-29T13:18:26;3.55;;;3.00;;
59169;SDS011;52474;52.236;5.114;2023-07-29T13:20:52;5.43;;;4.45;;
59169;SDS011;52474;52.236;5.114;2023-07-29T13:23:18;3.90;;;3.10;;
59169;SDS011;52474;52.236;5.114;2023-07-29T13:25:44;3.92;;;3.20;;
59169;SDS011;52474;52.236;5.114;2023-07-29T13:28:10;5.70;;;3.25;;
59169;SDS011;52474;52.236;5.114;2023-07-29T13:30:36;3.33;;;3.03;;
59169;SDS011;52474;52.236;5.114;2023-07-29T13:33:02;2.95;;;2.58;;
59169;SDS011;52474;52.236;5.114;2023-07-29T13:35:28;3.53;;;2.58;;
59169;SDS011;52474;52.236;5.114;2023-07-29T13:37:55;5.82;;;2.85;;
59169;SDS011;52474;52.236;5.114;2023-07-29T13:40:20;4.15;;;3.10;;
59169;SDS011;52474;52.236;5.114;2023-07-29T13:42:46;6.28;;;2.67;;
59169;SDS011;52474;52.236;5.114;2023-07-29T13:45:12;3.75;;;2.63;;
59169;SDS011;52474;52.236;5.114;2023-07-29T13:47:37;3.63;;;2.72;;
59169;SDS011;52474;52.236;5.114;2023-07-29T13:50:03;5.93;;;3.05;;
59169;SDS011;52474;52.236;5.114;2023-07-29T13:52:29;4.43;;;2.80;;
59169;SDS011;52474;52.236;5.114;2023-07-29T13:54:55;3.92;;;2.75;;
59169;SDS011;52474;52.236;5.114;2023-07-29T13:57:20;2.92;;;2.47;;
59169;SDS011;52474;52.236;5.114;2023-07-29T13:59:46;6.68;;;2.40;;
59169;SDS011;52474;52.236;5.114;2023-07-29T14:02:12;6.60;;;2.58;;
59169;SDS011;52474;52.236;5.114;2023-07-29T14:04:38;5.30;;;2.10;;
59169;SDS011;52474;52.236;5.114;2023-07-29T14:07:04;3.17;;;1.70;;
59169;SDS011;52474;52.236;5.114;2023-07-29T14:09:30;5.63;;;1.90;;
59169;SDS011;52474;52.236;5.114;2023-07-29T14:11:56;2.95;;;1.48;;
59169;SDS011;52474;52.236;5.114;2023-07-29T14:14:21;3.20;;;1.73;;
59169;SDS011;52474;52.236;5.114;2023-07-29T14:16:47;3.05;;;1.73;;
59169;SDS011;52474;52.236;5.114;2023-07-29T14:19:14;5.22;;;1.95;;
59169;SDS011;52474;52.236;5.114;2023-07-29T14:21:40;3.22;;;1.67;;
59169;SDS011;52474;52.236;5.114;2023-07-29T14:24:06;2.25;;;1.75;;
59169;SDS011;52474;52.236;5.114;2023-07-29T14:26:31;5.78;;;1.80;;
59169;SDS011;52474;52.236;5.114;2023-07-29T14:28:57;2.85;;;1.50;;
59169;SDS011;52474;52.236;5.114;2023-07-29T14:31:23;2.50;;;1.75;;
59169;SDS011;52474;52.236;5.114;2023-07-29T14:33:48;3.25;;;1.83;;
59169;SDS011;52474;52.236;5.114;2023-07-29T14:36:15;1.60;;;1.33;;
59169;SDS011;52474;52.236;5.114;2023-07-29T14:38:43;2.42;;;1.55;;
59169;SDS011;52474;52.236;5.114;2023-07-29T14:41:09;2.13;;;1.45;;
59169;SDS011;52474;52.236;5.114;2023-07-29T14:43:35;2.78;;;1.63;;
59169;SDS011;52474;52.236;5.114;2023-07-29T14:46:01;1.95;;;1.30;;
59169;SDS011;52474;52.236;5.114;2023-07-29T14:48:27;2.47;;;1.35;;
59169;SDS011;52474;52.236;5.114;2023-07-29T14:50:54;2.05;;;1.30;;
59169;SDS011;52474;52.236;5.114;2023-07-29T14:53:19;2.03;;;1.30;;
59169;SDS011;52474;52.236;5.114;2023-07-29T14:55:45;1.70;;;1.30;;
59169;SDS011;52474;52.236;5.114;2023-07-29T14:58:11;3.53;;;1.50;;
59169;SDS011;52474;52.236;5.114;2023-07-29T15:00:36;4.43;;;1.30;;
59169;SDS011;52474;52.236;5.114;2023-07-29T15:03:02;2.70;;;1.75;;
59169;SDS011;52474;52.236;5.114;2023-07-29T15:05:28;3.45;;;1.40;;